Time;durP1;ratioP1;P1;durP2;ratioP2;P2;SDS_P1;SDS_P2;PMS_P1;PMS_P2;Temp;Humidity;BMP_temperature;BMP_pressure;BME280_temperature;BME280_humidity;BME280_pressure;Samples;Min_cycle;Max_cycle;Signal;HPM_P1;HPM_P2
2021/08/16 00:01:10;;;;;;;10.67;9.60;;;27.70;94.10;;;;;;5115491;28;20552;-62
2021/08/16 00:03:36;;;;;;;10.53;9.50;;;27.70;94.20;;;;;;5116021;28;20183;-62
2021/08/16 00:06:02;;;;;;;11.60;9.60;;;27.60;94.30;;;;;;5115345;28;20207;-62
2021/08/16 00:08:27;;;;;;;12.57;10.33;;;27.60;94.30;;;;;;5115361;28;20172;-64
2021/08/16 00:10:53;;;;;;;10.60;9.60;;;27.60;94.40;;;;;;5114017;28;20443;-62
2021/08/16 00:13:20;;;;;;;11.00;9.90;;;27.60;94.80;;;;;;5115709;28;20219;-62
2021/08/16 00:15:46;;;;;;;11.23;9.80;;;27.50;94.70;;;;;;5115303;28;20195;-62
2021/08/16 00:18:12;;;;;;;10.50;9.50;;;27.50;94.40;;;;;;5114152;28;20490;-62
2021/08/16 00:20:38;;;;;;;11.27;10.17;;;27.40;94.60;;;;;;5115074;28;20420;-62
2021/08/16 00:23:03;;;;;;;12.47;11.17;;;27.40;95.10;;;;;;5115196;28;20223;-62
2021/08/16 00:25:30;;;;;;;11.73;9.70;;;27.30;95.20;;;;;;5115055;28;20199;-62
2021/08/16 00:27:55;;;;;;;10.47;9.53;;;27.30;95.40;;;;;;5115240;28;20196;-63
2021/08/16 00:30:21;;;;;;;13.87;10.47;;;27.30;95.50;;;;;;5113843;28;20898;-61
2021/08/16 00:32:49;;;;;;;11.87;9.80;;;27.20;95.30;;;;;;5113488;28;20176;-62
2021/08/16 00:35:15;;;;;;;11.77;10.43;;;27.20;95.30;;;;;;5114767;27;20427;-64
2021/08/16 00:37:41;;;;;;;11.23;10.13;;;27.10;95.90;;;;;;5115259;28;20420;-63
2021/08/16 00:40:08;;;;;;;17.23;12.37;;;27.10;95.90;;;;;;5113453;28;20191;-62
2021/08/16 00:42:33;;;;;;;13.63;10.70;;;27.10;95.70;;;;;;5114758;28;20447;-62
2021/08/16 00:44:59;;;;;;;11.20;10.03;;;27.00;95.90;;;;;;5114660;28;20455;-64
2021/08/16 00:47:25;;;;;;;11.47;10.27;;;27.00;95.90;;;;;;5114882;28;20176;-62
2021/08/16 00:49:51;;;;;;;11.93;9.97;;;27.00;96.10;;;;;;5113342;28;20200;-62
2021/08/16 00:52:17;;;;;;;11.70;10.27;;;27.00;96.10;;;;;;5114478;28;20414;-64
2021/08/16 00:54:43;;;;;;;12.90;9.77;;;27.00;96.00;;;;;;5113219;28;20729;-62
2021/08/16 00:57:09;;;;;;;11.70;10.10;;;26.90;95.70;;;;;;5114650;28;20414;-63
2021/08/16 00:59:35;;;;;;;12.37;10.80;;;26.90;96.00;;;;;;5113901;28;20428;-63
2021/08/16 01:02:01;;;;;;;13.00;10.47;;;26.90;95.70;;;;;;5113199;28;20183;-63
2021/08/16 01:04:28;;;;;;;10.10;9.10;;;26.90;95.60;;;;;;5113090;28;20400;-62
2021/08/16 01:06:54;;;;;;;15.77;10.23;;;26.80;95.30;;;;;;5114527;28;20191;-62
2021/08/16 01:09:19;;;;;;;10.80;9.70;;;26.80;95.20;;;;;;5114325;28;20407;-64
2021/08/16 01:11:47;;;;;;;15.83;10.07;;;26.80;95.50;;;;;;5113015;28;20172;-64
2021/08/16 01:14:13;;;;;;;14.90;11.30;;;26.80;95.70;;;;;;5114304;28;20789;-62
2021/08/16 01:16:39;;;;;;;10.50;9.40;;;26.70;95.80;;;;;;5114343;28;20911;-62
2021/08/16 01:19:05;;;;;;;10.37;9.37;;;26.60;95.80;;;;;;5114168;28;20420;-64
2021/08/16 01:21:31;;;;;;;11.27;9.50;;;26.70;95.80;;;;;;5112879;28;20685;-62
2021/08/16 01:23:56;;;;;;;11.20;9.50;;;26.60;95.90;;;;;;5114753;28;20476;-62
2021/08/16 01:26:22;;;;;;;12.70;8.57;;;26.60;95.90;;;;;;5114089;28;20626;-63
2021/08/16 01:28:48;;;;;;;13.60;9.70;;;26.60;95.90;;;;;;5114194;28;20168;-63
2021/08/16 01:31:14;;;;;;;15.10;10.10;;;26.60;95.90;;;;;;5112683;28;20201;-62
2021/08/16 01:33:40;;;;;;;14.60;9.80;;;26.60;96.00;;;;;;5113931;28;20276;-62
2021/08/16 01:36:06;;;;;;;14.77;9.67;;;26.60;96.30;;;;;;5114019;28;20206;-62
2021/08/16 01:38:34;;;;;;;8.87;8.03;;;26.70;96.50;;;;;;5114669;28;20411;-62
2021/08/16 01:41:00;;;;;;;10.47;9.17;;;26.70;96.60;;;;;;5114100;28;20466;-62
2021/08/16 01:43:26;;;;;;;11.07;8.77;;;26.70;96.50;;;;;;5114481;28;20765;-62
2021/08/16 01:45:52;;;;;;;11.97;8.57;;;26.70;96.50;;;;;;5113986;28;20431;-62
2021/08/16 01:48:18;;;;;;;14.13;9.70;;;26.70;96.60;;;;;;5114403;28;20168;-63
2021/08/16 01:50:45;;;;;;;9.60;8.70;;;26.70;96.60;;;;;;5113882;28;20527;-62
2021/08/16 01:53:12;;;;;;;11.63;9.50;;;26.70;96.60;;;;;;5114252;28;20450;-62
2021/08/16 01:55:37;;;;;;;10.33;9.07;;;26.70;96.60;;;;;;5113816;28;20428;-62
2021/08/16 01:58:04;;;;;;;9.87;8.97;;;26.70;96.70;;;;;;5114192;28;20422;-62
2021/08/16 02:00:29;;;;;;;13.23;8.83;;;26.60;96.70;;;;;;5113924;28;20234;-62
2021/08/16 02:02:55;;;;;;;9.70;8.80;;;26.60;96.60;;;;;;5114148;28;20405;-62
2021/08/16 02:05:21;;;;;;;12.23;8.17;;;26.60;96.70;;;;;;5113787;28;20232;-62
2021/08/16 02:07:46;;;;;;;11.87;8.80;;;26.50;96.70;;;;;;5112633;28;20186;-62
2021/08/16 02:10:12;;;;;;;10.73;7.80;;;26.50;96.80;;;;;;5113644;28;20252;-62
2021/08/16 02:12:38;;;;;;;9.10;7.90;;;26.50;96.90;;;;;;5114869;28;20628;-62
2021/08/16 02:15:09;;;;;;;9.40;8.50;;;26.50;97.10;;;;;;5117745;28;20227;-62
2021/08/16 02:17:34;;;;;;;8.80;7.90;;;26.50;97.10;;;;;;5116443;28;20412;-62
2021/08/16 02:20:00;;;;;;;10.27;7.80;;;26.50;97.40;;;;;;5117474;28;20768;-62
2021/08/16 02:22:26;;;;;;;12.23;8.70;;;26.50;97.30;;;;;;5117480;28;20220;-62
2021/08/16 02:24:51;;;;;;;8.53;7.70;;;26.40;97.40;;;;;;5117495;28;20275;-62
2021/08/16 02:27:18;;;;;;;12.80;8.37;;;26.40;97.40;;;;;;5117574;28;20178;-62
2021/08/16 02:29:45;;;;;;;9.33;8.07;;;26.40;97.50;;;;;;5117431;28;20256;-62
2021/08/16 02:32:11;;;;;;;10.13;8.33;;;26.40;97.40;;;;;;5117295;28;20411;-62
2021/08/16 02:34:36;;;;;;;8.50;7.70;;;26.40;97.30;;;;;;5117230;28;20574;-63
2021/08/16 02:37:02;;;;;;;8.83;7.90;;;26.30;97.20;;;;;;5117390;28;20530;-62
2021/08/16 02:39:28;;;;;;;8.40;7.60;;;26.30;97.20;;;;;;5115831;28;20176;-62
2021/08/16 02:41:54;;;;;;;9.97;7.83;;;26.30;97.30;;;;;;5117240;28;20502;-62
2021/08/16 02:44:19;;;;;;;8.50;7.57;;;26.30;97.60;;;;;;5115676;28;20274;-62
2021/08/16 02:46:45;;;;;;;10.77;7.93;;;26.30;97.80;;;;;;5117168;28;20226;-62
2021/08/16 02:49:11;;;;;;;9.00;8.10;;;26.20;97.90;;;;;;5117016;28;20213;-62
2021/08/16 02:51:36;;;;;;;9.33;8.43;;;26.20;97.90;;;;;;5116940;28;20195;-63
2021/08/16 02:54:02;;;;;;;10.40;8.37;;;26.20;97.80;;;;;;5116906;28;20208;-62
2021/08/16 02:56:27;;;;;;;10.97;8.40;;;26.10;97.80;;;;;;5116680;28;20198;-62
2021/08/16 02:58:53;;;;;;;10.20;8.10;;;26.00;97.80;;;;;;5116866;28;20710;-62
2021/08/16 03:01:18;;;;;;;9.77;8.87;;;26.00;97.80;;;;;;5116583;28;20655;-64
2021/08/16 03:03:44;;;;;;;9.23;7.90;;;25.90;97.80;;;;;;5116654;28;20652;-62
2021/08/16 03:06:10;;;;;;;10.37;9.03;;;25.90;97.90;;;;;;5116526;28;20191;-62
2021/08/16 03:08:36;;;;;;;12.43;7.80;;;25.80;98.10;;;;;;5117161;28;20328;-63
2021/08/16 03:11:04;;;;;;;10.00;8.90;;;25.80;98.30;;;;;;5116438;28;20806;-64
2021/08/16 03:13:29;;;;;;;10.03;8.77;;;25.80;98.30;;;;;;5117009;28;20464;-62
2021/08/16 03:15:55;;;;;;;11.53;7.70;;;25.80;98.50;;;;;;5116394;28;20434;-63
2021/08/16 03:18:21;;;;;;;9.50;7.83;;;25.70;98.60;;;;;;5116890;28;20197;-64
2021/08/16 03:20:47;;;;;;;8.23;7.43;;;25.70;98.40;;;;;;5115047;28;20286;-62
2021/08/16 03:23:12;;;;;;;9.30;7.90;;;25.70;98.60;;;;;;5115691;28;20545;-63
2021/08/16 03:25:38;;;;;;;9.17;8.27;;;25.70;98.80;;;;;;5116218;28;20222;-61
2021/08/16 03:28:04;;;;;;;9.17;7.77;;;25.70;98.90;;;;;;5116597;28;20189;-62
2021/08/16 03:30:30;;;;;;;11.00;7.70;;;25.70;98.90;;;;;;5114863;28;20251;-63
2021/08/16 03:32:55;;;;;;;13.90;8.60;;;25.60;98.90;;;;;;5116382;28;20446;-63
2021/08/16 03:35:21;;;;;;;9.20;8.30;;;25.60;99.00;;;;;;5115994;28;20235;-63
2021/08/16 03:37:46;;;;;;;10.20;8.70;;;25.60;99.10;;;;;;5116365;28;20748;-63
2021/08/16 03:40:13;;;;;;;10.80;7.63;;;25.50;99.20;;;;;;5115918;28;20257;-63
2021/08/16 03:42:39;;;;;;;8.27;7.57;;;25.50;99.20;;;;;;5116254;27;20178;-63
2021/08/16 03:45:16;;;;;;;10.40;7.50;;;25.40;99.30;;;;;;5115831;28;20438;-63
2021/08/16 03:47:43;;;;;;;9.43;7.17;;;25.40;99.40;;;;;;5115977;28;20189;-63
2021/08/16 03:50:10;;;;;;;10.10;7.03;;;25.40;99.50;;;;;;5114400;28;20428;-63
2021/08/16 03:52:36;;;;;;;9.73;8.30;;;25.30;99.50;;;;;;5116039;28;20468;-64
2021/08/16 03:55:03;;;;;;;11.60;8.00;;;25.30;99.50;;;;;;5115472;28;20470;-63
2021/08/16 03:57:28;;;;;;;10.87;8.33;;;25.30;99.70;;;;;;5114421;28;20418;-63
2021/08/16 03:59:54;;;;;;;8.10;7.30;;;25.30;99.80;;;;;;5115263;28;20786;-63
2021/08/16 04:02:21;;;;;;;8.07;7.20;;;25.20;99.90;;;;;;5115406;28;20232;-64
2021/08/16 04:04:47;;;;;;;10.37;7.60;;;25.20;99.90;;;;;;5115488;28;20202;-63
2021/08/16 04:07:12;;;;;;;9.57;7.30;;;25.20;99.90;;;;;;5115625;28;20440;-63
2021/08/16 04:09:38;;;;;;;11.40;7.63;;;25.10;99.90;;;;;;5115583;28;20660;-63
2021/08/16 04:12:04;;;;;;;8.20;7.43;;;25.10;99.90;;;;;;5115450;28;20583;-65
2021/08/16 04:14:30;;;;;;;7.57;6.33;;;25.10;99.90;;;;;;5114977;28;20301;-63
2021/08/16 04:16:55;;;;;;;9.00;6.27;;;25.10;99.90;;;;;;5112369;28;20504;-62
2021/08/16 04:19:21;;;;;;;9.57;6.50;;;25.00;99.90;;;;;;5113392;28;20223;-63
2021/08/16 04:21:47;;;;;;;7.10;6.30;;;25.00;99.90;;;;;;5113794;28;20174;-63
2021/08/16 04:24:13;;;;;;;9.47;6.73;;;25.00;99.90;;;;;;5115108;28;20554;-63
2021/08/16 04:26:38;;;;;;;8.33;6.93;;;25.00;99.90;;;;;;5098361;28;20226;-63
2021/08/16 04:29:04;;;;;;;11.33;7.43;;;25.00;99.90;;;;;;5098003;28;20186;-63
2021/08/16 04:31:29;;;;;;;6.83;6.20;;;25.00;99.90;;;;;;5106349;28;20198;-63
2021/08/16 04:33:55;;;;;;;8.10;6.50;;;25.00;99.90;;;;;;5145878;27;20693;-64
2021/08/16 04:36:21;;;;;;;6.87;6.20;;;25.00;99.90;;;;;;5106784;28;20209;-65
2021/08/16 04:38:47;;;;;;;8.47;6.73;;;25.00;99.90;;;;;;5101341;28;20643;-63
2021/08/16 04:41:13;;;;;;;9.50;6.70;;;25.00;99.90;;;;;;5105315;28;20439;-63
2021/08/16 04:43:39;;;;;;;9.27;6.80;;;25.00;99.90;;;;;;5110662;28;20219;-63
2021/08/16 04:46:04;;;;;;;8.37;7.07;;;25.00;99.90;;;;;;5106073;28;20227;-63
2021/08/16 04:48:30;;;;;;;7.40;5.90;;;25.10;99.90;;;;;;5098477;28;20538;-63
2021/08/16 04:50:55;;;;;;;7.40;6.60;;;25.10;99.90;;;;;;5100228;28;20210;-63
2021/08/16 04:53:21;;;;;;;7.10;6.37;;;25.10;99.90;;;;;;5097479;28;20712;-63
2021/08/16 04:55:46;;;;;;;7.50;6.60;;;25.10;99.90;;;;;;5106839;28;20206;-63
2021/08/16 04:58:12;;;;;;;8.80;7.87;;;25.10;99.90;;;;;;5096872;28;20524;-63
2021/08/16 05:00:38;;;;;;;8.50;7.10;;;25.20;99.90;;;;;;5103995;28;20203;-63
2021/08/16 05:03:03;;;;;;;6.77;6.07;;;25.10;99.90;;;;;;5112765;28;20672;-63
2021/08/16 05:05:30;;;;;;;8.77;7.10;;;25.20;99.90;;;;;;5102219;28;20207;-63
2021/08/16 05:07:58;;;;;;;8.70;7.70;;;25.20;99.90;;;;;;5097606;28;20187;-63
2021/08/16 05:10:26;;;;;;;7.83;7.13;;;25.30;99.90;;;;;;5106798;28;20449;-63
2021/08/16 05:12:53;;;;;;;8.40;7.30;;;25.30;99.90;;;;;;5095916;28;20404;-63
2021/08/16 05:15:19;;;;;;;8.17;7.37;;;25.30;99.90;;;;;;5107795;28;20464;-64
2021/08/16 05:17:45;;;;;;;8.30;7.50;;;25.30;99.90;;;;;;5113489;28;20435;-64
2021/08/16 05:20:12;;;;;;;8.77;7.97;;;25.40;99.90;;;;;;5104074;28;20543;-62
2021/08/16 05:22:40;;;;;;;8.70;7.80;;;25.40;99.90;;;;;;5109377;28;20478;-62
2021/08/16 05:25:08;;;;;;;10.23;7.70;;;25.40;99.90;;;;;;5137864;27;20503;-63
2021/08/16 05:27:34;;;;;;;7.80;7.00;;;25.50;99.90;;;;;;5099564;28;20419;-63
2021/08/16 05:29:59;;;;;;;8.33;7.53;;;25.50;99.90;;;;;;5107011;28;20959;-63
2021/08/16 05:32:25;;;;;;;8.10;6.90;;;25.60;99.90;;;;;;5141705;27;20183;-63
2021/08/16 05:34:51;;;;;;;8.20;7.40;;;25.60;99.90;;;;;;5099657;28;20540;-63
2021/08/16 05:37:16;;;;;;;7.73;7.03;;;25.60;99.90;;;;;;5096163;28;20198;-63
2021/08/16 05:39:42;;;;;;;9.07;8.23;;;25.70;99.90;;;;;;5104522;28;20207;-65
2021/08/16 05:42:07;;;;;;;8.73;7.93;;;25.70;99.90;;;;;;5100434;28;20180;-62
2021/08/16 05:44:34;;;;;;;9.30;7.20;;;25.80;99.90;;;;;;5100396;28;20211;-63
2021/08/16 05:47:02;;;;;;;10.07;7.37;;;25.80;99.90;;;;;;5105542;28;20266;-63
2021/08/16 05:49:28;;;;;;;11.00;7.83;;;25.90;99.90;;;;;;5111538;28;20804;-63
2021/08/16 05:51:53;;;;;;;9.50;7.70;;;26.00;99.90;;;;;;5109193;28;20477;-62
2021/08/16 05:54:19;;;;;;;8.30;7.47;;;26.00;99.90;;;;;;5141300;27;20910;-63
2021/08/16 05:56:45;;;;;;;8.50;7.70;;;26.10;99.90;;;;;;5112111;28;20194;-63
2021/08/16 05:59:10;;;;;;;12.30;7.60;;;26.20;99.90;;;;;;5104925;28;20191;-64
2021/08/16 06:01:39;;;;;;;9.20;8.30;;;26.20;99.90;;;;;;5109175;28;20217;-65
2021/08/16 06:04:08;;;;;;;8.20;7.50;;;26.30;99.90;;;;;;5111189;28;20189;-64
2021/08/16 06:06:36;;;;;;;11.60;7.80;;;26.40;99.90;;;;;;5108585;28;20450;-65
2021/08/16 06:09:04;;;;;;;9.53;8.33;;;26.50;99.90;;;;;;5110955;28;20968;-63
2021/08/16 06:11:30;;;;;;;8.10;7.30;;;26.60;99.90;;;;;;5101709;28;20448;-63
2021/08/16 06:13:56;;;;;;;7.80;7.10;;;26.70;99.90;;;;;;5102922;28;20819;-65
2021/08/16 06:16:22;;;;;;;7.40;6.70;;;26.70;99.90;;;;;;5131908;27;20522;-64
2021/08/16 06:18:48;;;;;;;8.60;7.70;;;26.80;99.90;;;;;;5105493;28;20429;-65
2021/08/16 06:21:13;;;;;;;8.40;7.60;;;26.90;99.90;;;;;;5108347;28;20268;-65
2021/08/16 06:23:39;;;;;;;9.20;8.30;;;27.00;99.90;;;;;;5107660;28;20524;-63
2021/08/16 06:26:05;;;;;;;10.27;7.70;;;27.10;99.90;;;;;;5106507;28;20326;-65
2021/08/16 06:28:31;;;;;;;9.27;7.43;;;27.20;99.90;;;;;;5106198;28;20725;-63
2021/08/16 06:30:57;;;;;;;8.43;7.73;;;27.20;99.90;;;;;;5106495;28;20850;-63
2021/08/16 06:33:23;;;;;;;9.43;8.20;;;27.30;99.90;;;;;;5114716;28;20468;-63
2021/08/16 06:35:50;;;;;;;10.23;7.90;;;27.40;99.90;;;;;;5112662;28;20455;-63
2021/08/16 06:40:53;;;;;;;9.00;7.97;;;27.60;99.90;;;;;;5106947;28;20965;-63
2021/08/16 06:43:19;;;;;;;8.87;7.97;;;27.60;99.90;;;;;;5105084;28;20428;-64
2021/08/16 06:45:46;;;;;;;9.50;7.30;;;27.70;99.90;;;;;;5107505;28;20805;-63
2021/08/16 06:48:12;;;;;;;8.03;7.30;;;27.80;99.90;;;;;;5103545;28;20432;-63
2021/08/16 06:50:39;;;;;;;11.00;7.90;;;27.90;99.90;;;;;;5103813;27;20452;-63
2021/08/16 06:53:05;;;;;;;9.30;8.40;;;28.00;99.90;;;;;;5103448;28;20825;-64
2021/08/16 06:55:31;;;;;;;9.10;8.20;;;28.10;99.70;;;;;;5101344;28;20596;-63
2021/08/16 06:57:57;;;;;;;8.03;6.53;;;28.10;99.60;;;;;;5104942;28;20440;-63
2021/08/16 07:00:22;;;;;;;8.40;7.50;;;28.20;99.00;;;;;;5100901;28;20608;-65
2021/08/16 07:02:48;;;;;;;8.90;8.00;;;28.30;99.10;;;;;;5102252;28;20198;-63
2021/08/16 07:05:14;;;;;;;8.07;7.27;;;28.30;99.20;;;;;;5096079;28;20260;-65
2021/08/16 07:07:39;;;;;;;8.70;7.80;;;28.40;99.20;;;;;;5097586;28;20546;-63
2021/08/16 07:10:06;;;;;;;8.17;7.40;;;28.50;98.80;;;;;;5097275;28;20295;-63
2021/08/16 07:12:32;;;;;;;8.43;7.63;;;28.60;98.80;;;;;;5105899;28;20177;-63
2021/08/16 07:14:58;;;;;;;8.13;7.43;;;28.60;98.20;;;;;;5104780;28;20483;-64
2021/08/16 07:17:24;;;;;;;8.17;7.37;;;28.70;98.00;;;;;;5102445;28;20434;-64
2021/08/16 07:19:49;;;;;;;8.80;7.40;;;28.80;98.00;;;;;;5096406;28;20317;-63
2021/08/16 07:22:16;;;;;;;8.87;8.00;;;28.90;98.30;;;;;;5098330;28;20184;-64
2021/08/16 07:24:42;;;;;;;8.17;7.37;;;29.00;98.10;;;;;;5104786;28;20220;-63
2021/08/16 07:27:08;;;;;;;8.07;7.37;;;29.10;98.00;;;;;;5102709;28;20422;-63
2021/08/16 07:29:34;;;;;;;7.40;6.80;;;29.10;97.00;;;;;;5104659;28;20449;-63
2021/08/16 07:31:59;;;;;;;8.10;7.40;;;29.20;97.30;;;;;;5103073;28;20201;-63
2021/08/16 07:34:25;;;;;;;8.33;6.70;;;29.20;97.80;;;;;;5099000;28;20225;-63
2021/08/16 07:36:54;;;;;;;9.30;7.57;;;29.30;97.90;;;;;;5099795;28;20720;-65
2021/08/16 07:39:22;;;;;;;8.23;7.43;;;29.40;97.90;;;;;;5098598;28;20182;-63
2021/08/16 07:41:48;;;;;;;9.17;8.10;;;29.50;97.90;;;;;;5103389;28;20488;-64
2021/08/16 07:44:15;;;;;;;10.33;7.63;;;29.60;98.10;;;;;;5098990;28;20466;-63
2021/08/16 07:46:41;;;;;;;8.20;7.43;;;29.70;98.10;;;;;;5100006;28;20186;-63
2021/08/16 07:49:07;;;;;;;8.40;7.70;;;29.80;97.30;;;;;;5099131;28;20445;-65
2021/08/16 07:51:33;;;;;;;11.00;9.30;;;29.90;96.90;;;;;;5104669;28;20451;-63
2021/08/16 07:53:59;;;;;;;10.40;9.33;;;30.00;97.20;;;;;;5099635;28;20705;-63
2021/08/16 07:56:24;;;;;;;9.87;8.87;;;30.10;96.50;;;;;;5106195;27;20453;-63
2021/08/16 07:58:50;;;;;;;9.23;8.33;;;30.10;95.90;;;;;;5103689;28;20678;-63
2021/08/16 08:01:17;;;;;;;9.53;8.63;;;30.20;96.10;;;;;;5102531;28;20694;-63
2021/08/16 08:03:43;;;;;;;11.47;10.17;;;30.30;95.80;;;;;;5106578;28;20188;-63
2021/08/16 08:06:09;;;;;;;11.57;10.37;;;30.30;96.20;;;;;;5137633;27;20463;-63
2021/08/16 08:08:34;;;;;;;10.90;9.80;;;30.40;95.30;;;;;;5102129;28;20210;-63
2021/08/16 08:11:00;;;;;;;11.83;10.63;;;30.50;95.10;;;;;;5100243;28;20449;-63
2021/08/16 08:13:26;;;;;;;11.77;10.50;;;30.60;95.10;;;;;;5101518;28;20218;-63
2021/08/16 08:15:51;;;;;;;12.20;11.00;;;30.70;95.20;;;;;;5101927;28;20566;-64
2021/08/16 08:18:17;;;;;;;13.93;12.30;;;30.80;94.70;;;;;;5102221;28;20180;-62
2021/08/16 08:20:43;;;;;;;13.90;12.50;;;30.90;94.70;;;;;;5103536;28;20216;-62
2021/08/16 08:23:09;;;;;;;14.07;12.70;;;31.00;94.70;;;;;;5111087;28;20221;-63
2021/08/16 08:25:35;;;;;;;18.40;13.67;;;31.10;94.50;;;;;;5102341;28;20231;-64
2021/08/16 08:28:01;;;;;;;18.30;15.23;;;31.20;93.90;;;;;;5100276;28;20459;-63
2021/08/16 08:30:27;;;;;;;19.27;17.27;;;31.30;94.20;;;;;;5104515;28;20499;-63
2021/08/16 08:32:56;;;;;;;18.47;16.50;;;31.40;94.20;;;;;;5096861;28;20838;-63
2021/08/16 08:35:23;;;;;;;18.67;15.83;;;31.50;93.00;;;;;;5099199;28;20231;-64
2021/08/16 08:37:49;;;;;;;21.50;19.23;;;31.60;93.30;;;;;;5099036;28;21684;-65
2021/08/16 08:40:15;;;;;;;22.40;20.00;;;31.60;93.30;;;;;;5102551;28;20489;-65
2021/08/16 08:42:47;;;;;;;25.27;22.00;;;31.70;92.90;;;;;;5100760;28;20458;-64
2021/08/16 08:45:13;;;;;;;24.17;19.63;;;31.80;93.10;;;;;;5099426;28;20502;-63
2021/08/16 08:47:40;;;;;;;21.63;19.43;;;31.90;92.70;;;;;;5103422;28;20443;-63
2021/08/16 08:50:06;;;;;;;19.60;17.53;;;32.10;92.80;;;;;;5100845;28;20463;-63
2021/08/16 08:52:32;;;;;;;20.80;18.00;;;32.10;93.40;;;;;;5109960;28;20463;-63
2021/08/16 08:54:58;;;;;;;17.27;15.60;;;32.30;93.00;;;;;;5101525;28;20512;-63
2021/08/16 08:57:27;;;;;;;14.63;13.20;;;32.40;92.80;;;;;;5097506;28;20558;-63
2021/08/16 08:59:53;;;;;;;14.10;12.73;;;32.40;92.00;;;;;;5093732;28;20209;-63
2021/08/16 09:02:20;;;;;;;11.07;10.17;;;32.50;91.90;;;;;;5098291;28;20522;-65
2021/08/16 09:04:56;;;;;;;13.70;11.83;;;32.50;91.30;;;;;;5098011;28;20681;-63
2021/08/16 09:07:35;;;;;;;12.60;11.40;;;32.60;91.30;;;;;;5097038;28;20438;-65
2021/08/16 09:10:10;;;;;;;12.17;10.97;;;32.60;91.40;;;;;;5098606;28;20432;-63
2021/08/16 09:12:37;;;;;;;12.40;11.10;;;32.80;91.20;;;;;;5102077;28;20440;-63
2021/08/16 09:15:14;;;;;;;10.97;10.07;;;33.00;91.10;;;;;;5105827;28;20472;-65
2021/08/16 09:17:39;;;;;;;12.03;10.93;;;33.20;90.80;;;;;;5104791;28;20454;-63
2021/08/16 09:20:18;;;;;;;12.07;11.03;;;33.30;90.50;;;;;;5105845;28;20456;-63
2021/08/16 09:23:13;;;;;;;12.40;11.20;;;33.30;90.80;;;;;;5103797;28;20734;-63
2021/08/16 09:25:39;;;;;;;12.73;11.43;;;33.30;90.90;;;;;;5100514;28;20499;-63
2021/08/16 09:28:07;;;;;;;12.73;11.50;;;33.20;90.70;;;;;;5104174;28;20416;-65
2021/08/16 09:30:39;;;;;;;11.60;10.60;;;33.10;90.20;;;;;;5107032;28;20463;-63
2021/08/16 09:33:18;;;;;;;12.17;10.77;;;33.10;90.80;;;;;;5107890;28;20522;-65
2021/08/16 09:35:58;;;;;;;13.17;12.07;;;33.20;90.80;;;;;;5101374;28;20472;-65
2021/08/16 09:38:35;;;;;;;12.07;10.80;;;33.20;90.70;;;;;;5099044;28;20439;-63
2021/08/16 09:41:02;;;;;;;11.37;10.37;;;33.20;90.10;;;;;;5097258;28;20445;-63
2021/08/16 09:43:28;;;;;;;12.43;11.30;;;33.30;90.40;;;;;;5096308;28;20819;-64
2021/08/16 09:45:54;;;;;;;11.77;10.53;;;33.30;90.50;;;;;;5099208;28;20495;-65
2021/08/16 09:48:22;;;;;;;11.43;10.37;;;33.40;91.00;;;;;;5106422;28;20467;-65
2021/08/16 09:50:51;;;;;;;10.43;9.53;;;33.40;90.20;;;;;;5129900;27;20195;-64
2021/08/16 09:53:22;;;;;;;11.87;10.83;;;33.50;90.10;;;;;;5116577;28;20437;-64
2021/08/16 09:55:53;;;;;;;12.07;10.80;;;33.50;88.30;;;;;;5098733;28;20573;-66
2021/08/16 09:58:20;;;;;;;11.00;10.10;;;33.50;87.80;;;;;;5142159;27;20460;-64
2021/08/16 10:00:48;;;;;;;12.30;11.10;;;33.60;88.50;;;;;;5102309;28;21447;-64
2021/08/16 10:03:14;;;;;;;10.80;9.77;;;33.60;88.60;;;;;;5101200;28;20455;-64
2021/08/16 10:05:44;;;;;;;11.93;10.73;;;33.70;88.70;;;;;;5102704;28;21031;-65
2021/08/16 10:08:11;;;;;;;11.53;10.50;;;33.70;88.80;;;;;;5107484;28;20435;-64
2021/08/16 10:10:40;;;;;;;12.07;11.07;;;33.70;88.90;;;;;;5138745;27;21039;-65
2021/08/16 10:13:07;;;;;;;11.77;10.63;;;33.70;88.80;;;;;;5105755;28;20439;-64
2021/08/16 10:15:50;;;;;;;14.43;11.07;;;33.80;87.90;;;;;;5104947;28;20860;-64
2021/08/16 10:18:24;;;;;;;12.20;11.10;;;33.70;88.50;;;;;;5100349;28;20439;-64
2021/08/16 10:20:50;;;;;;;11.27;10.10;;;33.80;88.50;;;;;;5104880;28;20513;-64
2021/08/16 10:23:21;;;;;;;11.47;10.23;;;33.80;87.00;;;;;;5101341;28;20572;-65
2021/08/16 10:25:49;;;;;;;11.67;10.50;;;33.80;88.30;;;;;;5102660;28;20460;-64
2021/08/16 10:28:34;;;;;;;13.07;10.53;;;33.90;87.50;;;;;;5131260;27;20936;-65
2021/08/16 10:31:04;;;;;;;14.80;11.40;;;33.90;87.20;;;;;;5102917;28;20459;-64
2021/08/16 10:33:41;;;;;;;12.27;11.07;;;34.00;88.30;;;;;;5109191;28;20451;-64
2021/08/16 10:36:18;;;;;;;12.23;11.13;;;34.00;87.00;;;;;;5138819;27;20450;-64
2021/08/16 10:38:50;;;;;;;11.90;9.73;;;34.10;87.60;;;;;;5102607;28;20440;-64
2021/08/16 10:41:42;;;;;;;10.93;9.93;;;34.10;86.30;;;;;;5100253;28;20437;-64
2021/08/16 10:44:13;;;;;;;10.70;9.70;;;34.10;87.70;;;;;;5121338;27;20432;-65
2021/08/16 10:46:39;;;;;;;11.60;10.30;;;34.10;86.50;;;;;;5105068;28;20998;-66
2021/08/16 10:49:07;;;;;;;12.23;11.10;;;34.20;87.00;;;;;;5104616;28;20747;-66
2021/08/16 10:51:42;;;;;;;11.03;10.00;;;34.20;87.10;;;;;;5099078;28;20464;-64
2021/08/16 10:54:08;;;;;;;10.97;10.00;;;34.20;86.50;;;;;;5103136;28;20467;-66
2021/08/16 10:56:34;;;;;;;11.73;10.73;;;34.20;87.20;;;;;;5103026;28;20436;-64
2021/08/16 10:59:01;;;;;;;14.83;10.80;;;34.30;86.50;;;;;;5103161;28;21800;-66
2021/08/16 11:01:29;;;;;;;11.80;10.90;;;34.30;86.70;;;;;;5103205;28;20664;-64
2021/08/16 11:04:15;;;;;;;10.30;9.50;;;34.40;86.10;;;;;;5102550;28;20440;-65
2021/08/16 11:07:01;;;;;;;10.07;9.07;;;34.30;86.70;;;;;;5102821;28;20463;-64
2021/08/16 11:09:33;;;;;;;11.20;10.20;;;34.40;85.30;;;;;;5102073;27;20448;-64
2021/08/16 11:12:07;;;;;;;10.83;9.80;;;34.40;84.90;;;;;;5109325;28;20416;-65
2021/08/16 11:14:37;;;;;;;11.87;10.80;;;34.40;84.10;;;;;;5104566;28;20455;-66
2021/08/16 11:17:03;;;;;;;11.60;10.60;;;34.50;85.00;;;;;;5108947;28;20796;-66
2021/08/16 11:19:46;;;;;;;12.10;11.00;;;34.50;85.10;;;;;;5106745;28;20517;-64
2021/08/16 11:22:13;;;;;;;12.03;10.90;;;34.60;83.80;;;;;;5103132;28;20439;-64
2021/08/16 11:24:40;;;;;;;10.70;9.70;;;34.60;83.80;;;;;;5138782;27;20793;-64
2021/08/16 11:27:08;;;;;;;11.10;10.10;;;34.70;83.00;;;;;;5107602;28;20428;-64
2021/08/16 11:29:34;;;;;;;12.10;9.43;;;34.70;84.40;;;;;;5103182;28;20455;-64
2021/08/16 11:32:02;;;;;;;13.33;9.60;;;34.70;84.30;;;;;;5131565;27;20459;-64
2021/08/16 11:34:29;;;;;;;10.17;9.30;;;34.80;83.00;;;;;;5103996;28;20813;-64
2021/08/16 11:36:56;;;;;;;12.10;11.00;;;34.80;82.10;;;;;;5101602;28;20421;-64
2021/08/16 11:39:33;;;;;;;9.73;8.83;;;34.90;82.40;;;;;;5111808;28;20444;-64
2021/08/16 11:42:00;;;;;;;11.67;10.53;;;34.90;82.80;;;;;;5137854;27;20428;-64
2021/08/16 11:44:26;;;;;;;10.40;9.60;;;34.90;82.80;;;;;;5106603;28;20852;-64
2021/08/16 11:46:52;;;;;;;10.63;9.73;;;35.00;81.00;;;;;;5100442;28;20514;-64
2021/08/16 11:49:18;;;;;;;10.40;9.50;;;35.00;82.10;;;;;;5097469;28;20462;-64
2021/08/16 11:51:45;;;;;;;12.87;10.73;;;35.00;82.10;;;;;;5102835;28;20463;-64
2021/08/16 11:54:22;;;;;;;10.50;9.50;;;35.10;82.70;;;;;;5097894;28;20231;-64
2021/08/16 11:56:54;;;;;;;10.30;9.40;;;35.10;83.20;;;;;;5107836;28;20459;-64
2021/08/16 11:59:20;;;;;;;11.47;10.47;;;35.10;81.60;;;;;;5100770;28;20417;-65
2021/08/16 12:01:46;;;;;;;14.90;10.90;;;35.20;82.50;;;;;;5108371;28;20435;-66
2021/08/16 12:04:12;;;;;;;11.17;10.07;;;35.20;82.30;;;;;;5108922;28;20160;-65
2021/08/16 12:06:39;;;;;;;11.33;10.07;;;35.20;82.60;;;;;;5104523;28;20452;-64
2021/08/16 12:09:06;;;;;;;11.00;9.90;;;35.30;81.80;;;;;;5106374;28;20439;-65
2021/08/16 12:11:32;;;;;;;10.90;9.90;;;35.30;80.80;;;;;;5134290;27;20455;-64
2021/08/16 12:13:59;;;;;;;12.13;10.77;;;35.40;81.10;;;;;;5103158;28;20518;-64
2021/08/16 12:16:33;;;;;;;10.20;9.40;;;35.40;79.50;;;;;;5096313;28;20203;-65
2021/08/16 12:18:59;;;;;;;10.33;9.43;;;35.40;80.00;;;;;;5106249;28;20916;-66
2021/08/16 12:21:27;;;;;;;11.40;10.13;;;35.30;80.80;;;;;;5106036;28;21180;-64
2021/08/16 12:23:58;;;;;;;11.20;10.20;;;35.30;80.30;;;;;;5105020;28;20468;-64
2021/08/16 12:26:32;;;;;;;10.67;9.73;;;35.30;80.60;;;;;;5100965;28;21125;-64
2021/08/16 12:28:58;;;;;;;11.70;10.60;;;35.30;80.00;;;;;;5140943;27;20442;-64
2021/08/16 12:31:25;;;;;;;11.90;10.80;;;35.30;79.50;;;;;;5104861;28;20455;-64
2021/08/16 12:34:01;;;;;;;10.93;9.93;;;35.30;80.30;;;;;;5100498;28;20204;-64
2021/08/16 12:36:31;;;;;;;11.23;10.20;;;35.30;81.40;;;;;;5107638;28;20467;-64
2021/08/16 12:38:59;;;;;;;12.13;10.90;;;35.30;80.40;;;;;;5102437;28;20758;-66
2021/08/16 12:41:27;;;;;;;11.20;9.00;;;35.40;80.60;;;;;;5107544;28;20436;-67